sensor_id;sensor_type;location;lat;lon;timestamp;P1;durP1;ratioP1;P2;durP2;ratioP2
42964;SDS011;28604;51.204;22.552;2023-08-17T00:01:50;23.70;;;12.68;;
42964;SDS011;28604;51.204;22.552;2023-08-17T00:04:16;15.38;;;11.27;;
42964;SDS011;28604;51.204;22.552;2023-08-17T00:06:42;15.93;;;11.15;;
42964;SDS011;28604;51.204;22.552;2023-08-17T00:09:08;24.50;;;12.30;;
42964;SDS011;28604;51.204;22.552;2023-08-17T00:11:35;28.58;;;11.90;;
42964;SDS011;28604;51.204;22.552;2023-08-17T00:14:01;21.98;;;12.93;;
42964;SDS011;28604;51.204;22.552;2023-08-17T00:16:27;29.42;;;12.20;;
42964;SDS011;28604;51.204;22.552;2023-08-17T00:18:54;30.05;;;12.65;;
42964;SDS011;28604;51.204;22.552;2023-08-17T00:21:19;19.27;;;12.10;;
42964;SDS011;28604;51.204;22.552;2023-08-17T00:23:45;23.27;;;11.93;;
42964;SDS011;28604;51.204;22.552;2023-08-17T00:26:11;24.52;;;12.25;;
42964;SDS011;28604;51.204;22.552;2023-08-17T00:28:39;18.45;;;11.38;;
42964;SDS011;28604;51.204;22.552;2023-08-17T00:31:05;14.80;;;9.85;;
42964;SDS011;28604;51.204;22.552;2023-08-17T00:33:31;15.45;;;10.60;;
42964;SDS011;28604;51.204;22.552;2023-08-17T00:35:57;19.85;;;10.93;;
42964;SDS011;28604;51.204;22.552;2023-08-17T00:38:25;13.80;;;10.38;;
42964;SDS011;28604;51.204;22.552;2023-08-17T00:40:51;15.57;;;10.38;;
42964;SDS011;28604;51.204;22.552;2023-08-17T00:43:17;14.93;;;10.50;;
42964;SDS011;28604;51.204;22.552;2023-08-17T00:45:43;20.63;;;10.93;;
42964;SDS011;28604;51.204;22.552;2023-08-17T00:48:12;18.52;;;10.68;;
42964;SDS011;28604;51.204;22.552;2023-08-17T00:50:38;17.00;;;11.15;;
42964;SDS011;28604;51.204;22.552;2023-08-17T00:53:06;19.92;;;10.38;;
42964;SDS011;28604;51.204;22.552;2023-08-17T00:55:32;15.95;;;10.40;;
42964;SDS011;28604;51.204;22.552;2023-08-17T00:57:59;19.33;;;10.55;;
42964;SDS011;28604;51.204;22.552;2023-08-17T01:00:25;18.02;;;10.27;;
42964;SDS011;28604;51.204;22.552;2023-08-17T01:02:53;12.45;;;10.13;;
42964;SDS011;28604;51.204;22.552;2023-08-17T01:05:20;11.70;;;10.20;;
42964;SDS011;28604;51.204;22.552;2023-08-17T01:07:47;23.85;;;10.23;;
42964;SDS011;28604;51.204;22.552;2023-08-17T01:10:13;15.55;;;10.27;;
42964;SDS011;28604;51.204;22.552;2023-08-17T01:18:05;11.13;;;9.85;;
42964;SDS011;28604;51.204;22.552;2023-08-17T01:20:56;17.27;;;10.60;;
42964;SDS011;28604;51.204;22.552;2023-08-17T01:23:23;19.38;;;12.05;;
42964;SDS011;28604;51.204;22.552;2023-08-17T01:25:49;19.92;;;10.95;;
42964;SDS011;28604;51.204;22.552;2023-08-17T01:28:15;13.80;;;10.85;;
42964;SDS011;28604;51.204;22.552;2023-08-17T01:30:47;17.05;;;11.05;;
42964;SDS011;28604;51.204;22.552;2023-08-17T01:33:28;20.50;;;11.43;;
42964;SDS011;28604;51.204;22.552;2023-08-17T01:36:22;22.40;;;10.65;;
42964;SDS011;28604;51.204;22.552;2023-08-17T01:38:52;14.35;;;10.52;;
42964;SDS011;28604;51.204;22.552;2023-08-17T01:41:23;13.90;;;10.23;;
42964;SDS011;28604;51.204;22.552;2023-08-17T01:43:50;18.10;;;10.45;;
42964;SDS011;28604;51.204;22.552;2023-08-17T01:46:17;13.35;;;10.25;;
42964;SDS011;28604;51.204;22.552;2023-08-17T01:48:45;13.98;;;10.63;;
42964;SDS011;28604;51.204;22.552;2023-08-17T01:51:15;13.25;;;11.32;;
42964;SDS011;28604;51.204;22.552;2023-08-17T01:53:44;13.77;;;11.00;;
42964;SDS011;28604;51.204;22.552;2023-08-17T01:56:10;20.27;;;11.20;;
42964;SDS011;28604;51.204;22.552;2023-08-17T01:58:36;13.48;;;11.55;;
42964;SDS011;28604;51.204;22.552;2023-08-17T02:01:02;13.55;;;11.27;;
42964;SDS011;28604;51.204;22.552;2023-08-17T02:03:28;18.75;;;11.88;;
42964;SDS011;28604;51.204;22.552;2023-08-17T02:05:57;16.42;;;11.52;;
42964;SDS011;28604;51.204;22.552;2023-08-17T02:08:23;15.90;;;11.45;;
42964;SDS011;28604;51.204;22.552;2023-08-17T02:10:51;13.38;;;11.00;;
42964;SDS011;28604;51.204;22.552;2023-08-17T02:13:18;13.70;;;11.35;;
42964;SDS011;28604;51.204;22.552;2023-08-17T02:15:44;16.38;;;10.48;;
42964;SDS011;28604;51.204;22.552;2023-08-17T02:18:11;11.23;;;10.13;;
42964;SDS011;28604;51.204;22.552;2023-08-17T02:20:37;16.75;;;11.13;;
42964;SDS011;28604;51.204;22.552;2023-08-17T02:23:03;17.10;;;11.88;;
42964;SDS011;28604;51.204;22.552;2023-08-17T02:25:29;13.73;;;10.50;;
42964;SDS011;28604;51.204;22.552;2023-08-17T02:28:01;13.60;;;10.88;;
42964;SDS011;28604;51.204;22.552;2023-08-17T02:30:28;15.50;;;10.85;;
42964;SDS011;28604;51.204;22.552;2023-08-17T02:32:59;16.88;;;11.32;;
42964;SDS011;28604;51.204;22.552;2023-08-17T02:35:24;17.73;;;11.02;;
42964;SDS011;28604;51.204;22.552;2023-08-17T02:37:51;13.93;;;10.93;;
42964;SDS011;28604;51.204;22.552;2023-08-17T02:40:17;15.63;;;11.02;;
42964;SDS011;28604;51.204;22.552;2023-08-17T02:42:43;15.00;;;11.63;;
42964;SDS011;28604;51.204;22.552;2023-08-17T02:45:09;16.90;;;11.10;;
42964;SDS011;28604;51.204;22.552;2023-08-17T02:47:35;14.32;;;11.00;;
42964;SDS011;28604;51.204;22.552;2023-08-17T02:50:01;21.58;;;11.05;;
42964;SDS011;28604;51.204;22.552;2023-08-17T02:52:27;17.83;;;11.05;;
42964;SDS011;28604;51.204;22.552;2023-08-17T02:54:53;13.85;;;10.90;;
42964;SDS011;28604;51.204;22.552;2023-08-17T02:57:20;17.73;;;11.57;;
42964;SDS011;28604;51.204;22.552;2023-08-17T02:59:46;18.02;;;11.02;;
42964;SDS011;28604;51.204;22.552;2023-08-17T03:02:12;15.60;;;11.27;;
42964;SDS011;28604;51.204;22.552;2023-08-17T03:04:38;12.80;;;10.80;;
42964;SDS011;28604;51.204;22.552;2023-08-17T03:07:04;15.35;;;11.30;;
42964;SDS011;28604;51.204;22.552;2023-08-17T03:09:30;14.77;;;10.80;;
42964;SDS011;28604;51.204;22.552;2023-08-17T03:11:56;20.60;;;11.75;;
42964;SDS011;28604;51.204;22.552;2023-08-17T03:14:22;13.15;;;11.30;;
42964;SDS011;28604;51.204;22.552;2023-08-17T03:16:48;15.60;;;11.00;;
42964;SDS011;28604;51.204;22.552;2023-08-17T03:19:14;15.70;;;11.55;;
42964;SDS011;28604;51.204;22.552;2023-08-17T03:21:42;18.48;;;10.82;;
42964;SDS011;28604;51.204;22.552;2023-08-17T03:24:09;11.30;;;10.18;;
42964;SDS011;28604;51.204;22.552;2023-08-17T03:26:35;16.77;;;12.70;;
42964;SDS011;28604;51.204;22.552;2023-08-17T03:29:01;21.55;;;17.80;;
42964;SDS011;28604;51.204;22.552;2023-08-17T03:31:27;16.77;;;11.65;;
42964;SDS011;28604;51.204;22.552;2023-08-17T03:33:54;13.02;;;10.88;;
42964;SDS011;28604;51.204;22.552;2023-08-17T03:36:21;18.00;;;11.55;;
42964;SDS011;28604;51.204;22.552;2023-08-17T03:38:48;15.35;;;11.73;;
42964;SDS011;28604;51.204;22.552;2023-08-17T03:41:14;29.05;;;13.18;;
42964;SDS011;28604;51.204;22.552;2023-08-17T03:43:40;23.05;;;12.93;;
42964;SDS011;28604;51.204;22.552;2023-08-17T03:46:06;19.77;;;12.60;;
42964;SDS011;28604;51.204;22.552;2023-08-17T03:48:31;18.15;;;13.23;;
42964;SDS011;28604;51.204;22.552;2023-08-17T03:50:58;22.17;;;12.35;;
42964;SDS011;28604;51.204;22.552;2023-08-17T03:53:23;15.18;;;12.50;;
42964;SDS011;28604;51.204;22.552;2023-08-17T03:55:50;23.52;;;13.13;;
42964;SDS011;28604;51.204;22.552;2023-08-17T03:58:17;18.95;;;13.32;;
42964;SDS011;28604;51.204;22.552;2023-08-17T04:00:50;16.48;;;12.38;;
42964;SDS011;28604;51.204;22.552;2023-08-17T04:03:18;23.15;;;13.05;;
42964;SDS011;28604;51.204;22.552;2023-08-17T04:05:45;20.08;;;13.05;;
42964;SDS011;28604;51.204;22.552;2023-08-17T04:08:11;22.20;;;13.55;;
42964;SDS011;28604;51.204;22.552;2023-08-17T04:10:37;17.33;;;12.95;;
42964;SDS011;28604;51.204;22.552;2023-08-17T04:13:04;19.85;;;13.07;;
42964;SDS011;28604;51.204;22.552;2023-08-17T04:15:30;15.02;;;12.52;;
42964;SDS011;28604;51.204;22.552;2023-08-17T04:17:56;24.02;;;13.27;;
42964;SDS011;28604;51.204;22.552;2023-08-17T04:20:22;22.83;;;14.60;;
42964;SDS011;28604;51.204;22.552;2023-08-17T04:22:48;18.23;;;13.95;;
42964;SDS011;28604;51.204;22.552;2023-08-17T04:25:14;26.33;;;14.52;;
42964;SDS011;28604;51.204;22.552;2023-08-17T04:27:40;17.15;;;13.02;;
42964;SDS011;28604;51.204;22.552;2023-08-17T04:30:07;17.23;;;12.60;;
42964;SDS011;28604;51.204;22.552;2023-08-17T04:32:42;21.92;;;12.80;;
42964;SDS011;28604;51.204;22.552;2023-08-17T04:35:12;27.45;;;12.70;;
42964;SDS011;28604;51.204;22.552;2023-08-17T04:37:38;24.05;;;13.52;;
42964;SDS011;28604;51.204;22.552;2023-08-17T04:40:05;20.67;;;13.23;;
42964;SDS011;28604;51.204;22.552;2023-08-17T04:42:32;24.85;;;14.15;;
42964;SDS011;28604;51.204;22.552;2023-08-17T04:44:58;16.40;;;12.60;;
42964;SDS011;28604;51.204;22.552;2023-08-17T04:47:24;20.70;;;12.52;;
42964;SDS011;28604;51.204;22.552;2023-08-17T04:49:50;19.70;;;13.27;;
42964;SDS011;28604;51.204;22.552;2023-08-17T04:52:16;18.67;;;12.90;;
42964;SDS011;28604;51.204;22.552;2023-08-17T04:54:42;22.52;;;12.75;;
42964;SDS011;28604;51.204;22.552;2023-08-17T04:57:08;27.00;;;13.70;;
42964;SDS011;28604;51.204;22.552;2023-08-17T04:59:35;19.10;;;13.23;;
42964;SDS011;28604;51.204;22.552;2023-08-17T05:02:00;20.27;;;13.88;;
42964;SDS011;28604;51.204;22.552;2023-08-17T05:04:26;26.13;;;13.68;;
42964;SDS011;28604;51.204;22.552;2023-08-17T05:06:52;19.33;;;13.25;;
42964;SDS011;28604;51.204;22.552;2023-08-17T05:09:20;19.88;;;13.32;;
42964;SDS011;28604;51.204;22.552;2023-08-17T05:11:58;22.23;;;12.70;;
42964;SDS011;28604;51.204;22.552;2023-08-17T05:14:24;21.42;;;13.32;;
42964;SDS011;28604;51.204;22.552;2023-08-17T05:16:49;18.42;;;13.80;;
42964;SDS011;28604;51.204;22.552;2023-08-17T05:19:16;17.05;;;12.50;;
42964;SDS011;28604;51.204;22.552;2023-08-17T05:21:42;24.45;;;13.02;;
42964;SDS011;28604;51.204;22.552;2023-08-17T05:24:09;15.05;;;12.95;;
42964;SDS011;28604;51.204;22.552;2023-08-17T05:26:35;16.92;;;13.32;;
42964;SDS011;28604;51.204;22.552;2023-08-17T05:29:01;20.92;;;13.95;;
42964;SDS011;28604;51.204;22.552;2023-08-17T05:31:27;18.65;;;12.57;;
42964;SDS011;28604;51.204;22.552;2023-08-17T05:33:54;20.98;;;12.95;;
42964;SDS011;28604;51.204;22.552;2023-08-17T05:36:22;24.95;;;14.48;;
42964;SDS011;28604;51.204;22.552;2023-08-17T05:38:48;21.40;;;14.20;;
42964;SDS011;28604;51.204;22.552;2023-08-17T05:41:14;44.42;;;14.82;;
42964;SDS011;28604;51.204;22.552;2023-08-17T05:43:43;25.42;;;13.68;;
42964;SDS011;28604;51.204;22.552;2023-08-17T05:46:09;23.10;;;12.68;;
42964;SDS011;28604;51.204;22.552;2023-08-17T05:48:35;33.17;;;13.45;;
42964;SDS011;28604;51.204;22.552;2023-08-17T05:51:00;27.67;;;12.55;;
42964;SDS011;28604;51.204;22.552;2023-08-17T05:53:26;22.85;;;12.35;;
42964;SDS011;28604;51.204;22.552;2023-08-17T05:55:52;16.88;;;11.27;;
42964;SDS011;28604;51.204;22.552;2023-08-17T05:58:18;15.77;;;11.32;;
42964;SDS011;28604;51.204;22.552;2023-08-17T06:00:44;25.63;;;11.85;;
42964;SDS011;28604;51.204;22.552;2023-08-17T06:03:10;20.55;;;12.02;;
42964;SDS011;28604;51.204;22.552;2023-08-17T06:05:36;22.98;;;10.88;;
42964;SDS011;28604;51.204;22.552;2023-08-17T06:08:02;25.55;;;12.32;;
42964;SDS011;28604;51.204;22.552;2023-08-17T06:10:28;28.30;;;12.82;;
42964;SDS011;28604;51.204;22.552;2023-08-17T06:12:55;29.70;;;12.15;;
42964;SDS011;28604;51.204;22.552;2023-08-17T06:15:22;26.63;;;13.20;;
42964;SDS011;28604;51.204;22.552;2023-08-17T06:17:49;15.43;;;11.52;;
42964;SDS011;28604;51.204;22.552;2023-08-17T06:20:15;21.15;;;11.27;;
42964;SDS011;28604;51.204;22.552;2023-08-17T06:22:41;25.20;;;11.57;;
42964;SDS011;28604;51.204;22.552;2023-08-17T06:25:07;29.52;;;12.43;;
42964;SDS011;28604;51.204;22.552;2023-08-17T06:27:34;21.00;;;11.93;;
42964;SDS011;28604;51.204;22.552;2023-08-17T06:30:01;21.67;;;11.82;;
42964;SDS011;28604;51.204;22.552;2023-08-17T06:32:29;32.25;;;12.13;;
42964;SDS011;28604;51.204;22.552;2023-08-17T06:34:55;28.77;;;12.20;;
42964;SDS011;28604;51.204;22.552;2023-08-17T06:37:21;24.05;;;11.55;;
42964;SDS011;28604;51.204;22.552;2023-08-17T06:39:47;20.17;;;12.98;;
42964;SDS011;28604;51.204;22.552;2023-08-17T06:42:13;26.48;;;11.77;;
42964;SDS011;28604;51.204;22.552;2023-08-17T06:44:39;19.95;;;12.20;;
42964;SDS011;28604;51.204;22.552;2023-08-17T06:47:05;23.83;;;11.70;;
42964;SDS011;28604;51.204;22.552;2023-08-17T06:49:31;20.80;;;10.23;;
42964;SDS011;28604;51.204;22.552;2023-08-17T06:51:57;19.92;;;10.48;;
42964;SDS011;28604;51.204;22.552;2023-08-17T06:54:23;17.67;;;10.30;;
42964;SDS011;28604;51.204;22.552;2023-08-17T06:56:49;22.85;;;11.52;;
42964;SDS011;28604;51.204;22.552;2023-08-17T06:59:15;22.50;;;11.25;;
42964;SDS011;28604;51.204;22.552;2023-08-17T07:01:41;25.50;;;11.38;;
42964;SDS011;28604;51.204;22.552;2023-08-17T07:04:07;26.92;;;10.27;;
42964;SDS011;28604;51.204;22.552;2023-08-17T07:06:33;18.40;;;10.48;;
42964;SDS011;28604;51.204;22.552;2023-08-17T07:08:59;21.20;;;10.70;;
42964;SDS011;28604;51.204;22.552;2023-08-17T07:11:25;25.15;;;10.73;;
42964;SDS011;28604;51.204;22.552;2023-08-17T07:13:51;18.75;;;9.18;;
42964;SDS011;28604;51.204;22.552;2023-08-17T07:16:17;14.13;;;9.27;;
42964;SDS011;28604;51.204;22.552;2023-08-17T07:18:44;24.80;;;8.95;;
42964;SDS011;28604;51.204;22.552;2023-08-17T07:21:10;30.52;;;9.43;;
42964;SDS011;28604;51.204;22.552;2023-08-17T07:23:35;18.00;;;7.82;;
42964;SDS011;28604;51.204;22.552;2023-08-17T07:26:01;13.10;;;7.72;;
42964;SDS011;28604;51.204;22.552;2023-08-17T07:28:27;10.60;;;6.45;;
42964;SDS011;28604;51.204;22.552;2023-08-17T07:30:53;10.95;;;6.55;;
42964;SDS011;28604;51.204;22.552;2023-08-17T07:33:19;9.02;;;6.28;;
42964;SDS011;28604;51.204;22.552;2023-08-17T07:35:45;8.55;;;6.05;;
42964;SDS011;28604;51.204;22.552;2023-08-17T07:38:11;15.98;;;5.95;;
42964;SDS011;28604;51.204;22.552;2023-08-17T07:40:37;17.02;;;6.15;;
42964;SDS011;28604;51.204;22.552;2023-08-17T07:43:03;13.52;;;5.65;;
42964;SDS011;28604;51.204;22.552;2023-08-17T07:45:29;7.72;;;4.90;;
42964;SDS011;28604;51.204;22.552;2023-08-17T07:47:55;6.50;;;5.07;;
42964;SDS011;28604;51.204;22.552;2023-08-17T07:50:21;11.98;;;5.95;;
42964;SDS011;28604;51.204;22.552;2023-08-17T07:52:47;14.95;;;5.03;;
42964;SDS011;28604;51.204;22.552;2023-08-17T07:55:13;10.20;;;5.05;;
42964;SDS011;28604;51.204;22.552;2023-08-17T07:57:39;8.77;;;4.85;;
42964;SDS011;28604;51.204;22.552;2023-08-17T08:00:05;7.00;;;4.93;;
42964;SDS011;28604;51.204;22.552;2023-08-17T08:02:33;8.80;;;4.75;;
42964;SDS011;28604;51.204;22.552;2023-08-17T08:04:59;10.98;;;4.55;;
42964;SDS011;28604;51.204;22.552;2023-08-17T08:07:25;6.28;;;4.28;;
42964;SDS011;28604;51.204;22.552;2023-08-17T08:09:51;6.55;;;4.43;;
42964;SDS011;28604;51.204;22.552;2023-08-17T08:12:17;12.23;;;4.80;;
42964;SDS011;28604;51.204;22.552;2023-08-17T08:14:43;8.00;;;3.63;;
42964;SDS011;28604;51.204;22.552;2023-08-17T08:17:09;9.25;;;4.45;;
42964;SDS011;28604;51.204;22.552;2023-08-17T08:19:35;11.00;;;4.38;;
42964;SDS011;28604;51.204;22.552;2023-08-17T08:22:01;11.70;;;4.82;;
42964;SDS011;28604;51.204;22.552;2023-08-17T08:24:28;5.07;;;4.32;;
42964;SDS011;28604;51.204;22.552;2023-08-17T08:26:59;4.88;;;3.97;;
42964;SDS011;28604;51.204;22.552;2023-08-17T08:29:25;10.13;;;4.65;;
42964;SDS011;28604;51.204;22.552;2023-08-17T08:31:51;12.20;;;4.78;;
42964;SDS011;28604;51.204;22.552;2023-08-17T08:34:18;8.02;;;4.78;;
42964;SDS011;28604;51.204;22.552;2023-08-17T08:36:43;4.60;;;3.88;;
42964;SDS011;28604;51.204;22.552;2023-08-17T08:39:09;6.72;;;4.25;;
42964;SDS011;28604;51.204;22.552;2023-08-17T08:41:38;10.38;;;4.63;;
42964;SDS011;28604;51.204;22.552;2023-08-17T08:44:04;8.63;;;5.38;;
42964;SDS011;28604;51.204;22.552;2023-08-17T08:46:30;8.02;;;4.63;;
42964;SDS011;28604;51.204;22.552;2023-08-17T08:48:59;7.22;;;4.70;;
42964;SDS011;28604;51.204;22.552;2023-08-17T08:51:28;13.65;;;4.28;;
42964;SDS011;28604;51.204;22.552;2023-08-17T08:54:00;8.50;;;4.38;;
42964;SDS011;28604;51.204;22.552;2023-08-17T08:56:29;5.57;;;4.35;;
42964;SDS011;28604;51.204;22.552;2023-08-17T08:58:58;8.63;;;4.63;;
42964;SDS011;28604;51.204;22.552;2023-08-17T09:01:28;8.15;;;4.55;;
42964;SDS011;28604;51.204;22.552;2023-08-17T09:03:56;12.10;;;4.43;;
42964;SDS011;28604;51.204;22.552;2023-08-17T09:06:24;6.25;;;4.40;;
42964;SDS011;28604;51.204;22.552;2023-08-17T09:08:51;5.05;;;3.90;;
42964;SDS011;28604;51.204;22.552;2023-08-17T09:11:17;7.13;;;4.10;;
42964;SDS011;28604;51.204;22.552;2023-08-17T09:13:43;7.07;;;4.15;;
42964;SDS011;28604;51.204;22.552;2023-08-17T09:16:09;5.22;;;3.83;;
42964;SDS011;28604;51.204;22.552;2023-08-17T09:18:35;3.60;;;3.30;;
42964;SDS011;28604;51.204;22.552;2023-08-17T09:21:01;8.60;;;3.47;;
42964;SDS011;28604;51.204;22.552;2023-08-17T09:23:27;7.28;;;3.67;;
42964;SDS011;28604;51.204;22.552;2023-08-17T09:25:53;8.90;;;3.53;;
42964;SDS011;28604;51.204;22.552;2023-08-17T09:28:23;11.75;;;3.67;;
42964;SDS011;28604;51.204;22.552;2023-08-17T09:33:29;5.53;;;3.97;;
42964;SDS011;28604;51.204;22.552;2023-08-17T09:35:56;11.90;;;3.80;;
42964;SDS011;28604;51.204;22.552;2023-08-17T09:38:23;8.18;;;3.63;;
42964;SDS011;28604;51.204;22.552;2023-08-17T09:40:50;7.13;;;3.80;;
42964;SDS011;28604;51.204;22.552;2023-08-17T09:43:17;14.20;;;4.40;;
42964;SDS011;28604;51.204;22.552;2023-08-17T09:45:44;4.63;;;3.03;;
42964;SDS011;28604;51.204;22.552;2023-08-17T09:48:16;10.60;;;3.58;;
42964;SDS011;28604;51.204;22.552;2023-08-17T09:50:44;9.63;;;3.10;;
42964;SDS011;28604;51.204;22.552;2023-08-17T09:53:17;7.35;;;3.30;;
42964;SDS011;28604;51.204;22.552;2023-08-17T09:55:46;6.30;;;3.58;;
42964;SDS011;28604;51.204;22.552;2023-08-17T09:58:13;6.93;;;3.53;;
42964;SDS011;28604;51.204;22.552;2023-08-17T10:00:44;10.10;;;3.40;;
42964;SDS011;28604;51.204;22.552;2023-08-17T10:03:17;9.27;;;3.58;;
42964;SDS011;28604;51.204;22.552;2023-08-17T10:05:44;9.07;;;2.00;;
42964;SDS011;28604;51.204;22.552;2023-08-17T10:08:13;5.38;;;1.90;;
42964;SDS011;28604;51.204;22.552;2023-08-17T10:10:45;3.75;;;1.67;;
42964;SDS011;28604;51.204;22.552;2023-08-17T10:13:16;9.65;;;2.35;;
42964;SDS011;28604;51.204;22.552;2023-08-17T10:16:03;8.93;;;2.97;;
42964;SDS011;28604;51.204;22.552;2023-08-17T10:21:28;19.70;;;3.40;;
42964;SDS011;28604;51.204;22.552;2023-08-17T10:23:55;9.18;;;3.22;;
42964;SDS011;28604;51.204;22.552;2023-08-17T10:26:23;9.73;;;2.85;;
42964;SDS011;28604;51.204;22.552;2023-08-17T10:28:50;5.57;;;2.70;;
42964;SDS011;28604;51.204;22.552;2023-08-17T10:31:17;5.75;;;2.60;;
42964;SDS011;28604;51.204;22.552;2023-08-17T10:33:44;6.25;;;2.95;;
42964;SDS011;28604;51.204;22.552;2023-08-17T10:36:12;8.60;;;2.92;;
42964;SDS011;28604;51.204;22.552;2023-08-17T10:38:40;7.30;;;2.85;;
42964;SDS011;28604;51.204;22.552;2023-08-17T10:41:09;7.30;;;2.85;;
42964;SDS011;28604;51.204;22.552;2023-08-17T10:43:55;10.83;;;3.00;;
42964;SDS011;28604;51.204;22.552;2023-08-17T10:46:34;10.57;;;2.80;;
42964;SDS011;28604;51.204;22.552;2023-08-17T10:49:03;6.45;;;2.97;;
42964;SDS011;28604;51.204;22.552;2023-08-17T10:51:34;8.77;;;2.60;;
42964;SDS011;28604;51.204;22.552;2023-08-17T10:54:01;10.25;;;3.22;;
42964;SDS011;28604;51.204;22.552;2023-08-17T10:56:29;18.55;;;3.40;;
42964;SDS011;28604;51.204;22.552;2023-08-17T10:59:01;13.32;;;2.40;;
42964;SDS011;28604;51.204;22.552;2023-08-17T11:01:35;10.25;;;2.60;;
42964;SDS011;28604;51.204;22.552;2023-08-17T11:04:08;13.85;;;3.13;;
42964;SDS011;28604;51.204;22.552;2023-08-17T11:06:42;15.88;;;3.13;;
42964;SDS011;28604;51.204;22.552;2023-08-17T11:09:09;13.73;;;2.90;;
42964;SDS011;28604;51.204;22.552;2023-08-17T11:11:35;12.13;;;3.05;;
42964;SDS011;28604;51.204;22.552;2023-08-17T11:14:01;12.07;;;2.63;;
42964;SDS011;28604;51.204;22.552;2023-08-17T11:16:27;9.10;;;2.97;;
42964;SDS011;28604;51.204;22.552;2023-08-17T11:18:53;14.18;;;3.15;;
42964;SDS011;28604;51.204;22.552;2023-08-17T11:21:22;17.58;;;3.22;;
42964;SDS011;28604;51.204;22.552;2023-08-17T11:23:48;14.23;;;2.28;;
42964;SDS011;28604;51.204;22.552;2023-08-17T11:26:18;9.32;;;3.05;;
42964;SDS011;28604;51.204;22.552;2023-08-17T11:28:44;6.18;;;2.13;;
42964;SDS011;28604;51.204;22.552;2023-08-17T11:31:12;11.13;;;2.65;;
42964;SDS011;28604;51.204;22.552;2023-08-17T11:33:39;18.08;;;3.58;;
42964;SDS011;28604;51.204;22.552;2023-08-17T11:36:06;10.15;;;3.28;;
42964;SDS011;28604;51.204;22.552;2023-08-17T11:38:34;10.13;;;3.83;;
42964;SDS011;28604;51.204;22.552;2023-08-17T11:41:04;6.28;;;2.90;;
42964;SDS011;28604;51.204;22.552;2023-08-17T11:43:33;10.77;;;2.70;;
42964;SDS011;28604;51.204;22.552;2023-08-17T11:46:00;7.22;;;3.28;;
42964;SDS011;28604;51.204;22.552;2023-08-17T11:48:27;11.15;;;3.00;;
42964;SDS011;28604;51.204;22.552;2023-08-17T11:50:53;14.80;;;2.70;;
42964;SDS011;28604;51.204;22.552;2023-08-17T11:53:20;10.02;;;3.15;;
42964;SDS011;28604;51.204;22.552;2023-08-17T11:55:46;8.38;;;2.58;;
42964;SDS011;28604;51.204;22.552;2023-08-17T11:58:14;8.07;;;3.08;;
42964;SDS011;28604;51.204;22.552;2023-08-17T12:00:41;4.75;;;2.83;;
42964;SDS011;28604;51.204;22.552;2023-08-17T12:03:13;4.15;;;2.47;;
42964;SDS011;28604;51.204;22.552;2023-08-17T12:05:41;7.77;;;2.53;;
42964;SDS011;28604;51.204;22.552;2023-08-17T12:08:08;6.88;;;2.78;;
42964;SDS011;28604;51.204;22.552;2023-08-17T12:10:36;11.63;;;2.88;;
42964;SDS011;28604;51.204;22.552;2023-08-17T12:13:03;6.18;;;2.60;;
42964;SDS011;28604;51.204;22.552;2023-08-17T12:15:35;7.05;;;2.80;;
42964;SDS011;28604;51.204;22.552;2023-08-17T12:18:02;4.32;;;2.33;;
42964;SDS011;28604;51.204;22.552;2023-08-17T12:20:29;3.35;;;2.38;;
42964;SDS011;28604;51.204;22.552;2023-08-17T12:22:57;5.40;;;2.70;;
42964;SDS011;28604;51.204;22.552;2023-08-17T12:25:24;6.63;;;2.85;;
42964;SDS011;28604;51.204;22.552;2023-08-17T12:27:51;4.35;;;2.65;;
42964;SDS011;28604;51.204;22.552;2023-08-17T12:30:24;8.60;;;2.72;;
42964;SDS011;28604;51.204;22.552;2023-08-17T12:32:55;8.02;;;2.58;;
42964;SDS011;28604;51.204;22.552;2023-08-17T12:35:20;6.90;;;3.05;;
42964;SDS011;28604;51.204;22.552;2023-08-17T12:37:49;11.30;;;2.53;;
42964;SDS011;28604;51.204;22.552;2023-08-17T12:40:19;4.45;;;2.38;;
42964;SDS011;28604;51.204;22.552;2023-08-17T12:42:45;4.25;;;2.97;;
42964;SDS011;28604;51.204;22.552;2023-08-17T12:45:12;9.02;;;2.53;;
42964;SDS011;28604;51.204;22.552;2023-08-17T12:47:38;8.32;;;2.60;;
42964;SDS011;28604;51.204;22.552;2023-08-17T12:50:04;15.13;;;3.00;;
42964;SDS011;28604;51.204;22.552;2023-08-17T12:52:31;6.78;;;2.65;;
42964;SDS011;28604;51.204;22.552;2023-08-17T12:54:57;5.07;;;2.63;;
42964;SDS011;28604;51.204;22.552;2023-08-17T12:57:23;6.93;;;2.50;;
42964;SDS011;28604;51.204;22.552;2023-08-17T12:59:49;11.15;;;2.95;;
42964;SDS011;28604;51.204;22.552;2023-08-17T13:02:15;11.70;;;3.33;;
42964;SDS011;28604;51.204;22.552;2023-08-17T13:04:41;10.88;;;2.40;;
42964;SDS011;28604;51.204;22.552;2023-08-17T13:07:08;6.85;;;2.80;;
42964;SDS011;28604;51.204;22.552;2023-08-17T13:09:33;5.55;;;2.38;;
42964;SDS011;28604;51.204;22.552;2023-08-17T13:11:59;9.70;;;2.45;;
42964;SDS011;28604;51.204;22.552;2023-08-17T13:14:25;7.93;;;2.70;;
42964;SDS011;28604;51.204;22.552;2023-08-17T13:16:51;9.32;;;2.53;;
42964;SDS011;28604;51.204;22.552;2023-08-17T13:19:17;14.10;;;2.50;;
42964;SDS011;28604;51.204;22.552;2023-08-17T13:21:44;7.07;;;2.03;;
42964;SDS011;28604;51.204;22.552;2023-08-17T13:24:10;7.72;;;2.40;;
42964;SDS011;28604;51.204;22.552;2023-08-17T13:26:36;9.02;;;2.67;;
42964;SDS011;28604;51.204;22.552;2023-08-17T13:29:02;7.35;;;2.78;;
42964;SDS011;28604;51.204;22.552;2023-08-17T13:31:29;4.15;;;2.00;;
42964;SDS011;28604;51.204;22.552;2023-08-17T13:33:54;6.28;;;2.20;;
42964;SDS011;28604;51.204;22.552;2023-08-17T13:36:21;9.32;;;2.50;;
42964;SDS011;28604;51.204;22.552;2023-08-17T13:38:47;6.05;;;2.33;;
42964;SDS011;28604;51.204;22.552;2023-08-17T13:41:13;7.97;;;2.90;;
42964;SDS011;28604;51.204;22.552;2023-08-17T13:43:39;8.15;;;2.65;;
42964;SDS011;28604;51.204;22.552;2023-08-17T13:46:05;7.03;;;2.42;;
42964;SDS011;28604;51.204;22.552;2023-08-17T13:48:32;8.48;;;3.03;;
42964;SDS011;28604;51.204;22.552;2023-08-17T13:50:57;12.77;;;2.90;;
42964;SDS011;28604;51.204;22.552;2023-08-17T13:53:23;8.38;;;2.65;;
42964;SDS011;28604;51.204;22.552;2023-08-17T13:55:49;12.43;;;2.92;;
42964;SDS011;28604;51.204;22.552;2023-08-17T13:58:15;11.80;;;2.42;;
42964;SDS011;28604;51.204;22.552;2023-08-17T14:00:41;6.60;;;2.05;;
42964;SDS011;28604;51.204;22.552;2023-08-17T14:03:08;4.80;;;2.33;;
42964;SDS011;28604;51.204;22.552;2023-08-17T14:05:33;6.43;;;2.70;;
42964;SDS011;28604;51.204;22.552;2023-08-17T14:08:00;6.15;;;2.10;;
42964;SDS011;28604;51.204;22.552;2023-08-17T14:10:26;9.30;;;2.40;;
42964;SDS011;28604;51.204;22.552;2023-08-17T14:12:52;3.75;;;2.45;;
42964;SDS011;28604;51.204;22.552;2023-08-17T14:15:18;9.15;;;2.10;;
42964;SDS011;28604;51.204;22.552;2023-08-17T14:17:44;9.00;;;2.35;;
42964;SDS011;28604;51.204;22.552;2023-08-17T14:20:10;3.97;;;2.40;;
42964;SDS011;28604;51.204;22.552;2023-08-17T14:22:36;6.68;;;2.47;;
42964;SDS011;28604;51.204;22.552;2023-08-17T14:25:02;7.35;;;2.13;;
42964;SDS011;28604;51.204;22.552;2023-08-17T14:27:29;7.80;;;2.03;;
42964;SDS011;28604;51.204;22.552;2023-08-17T14:29:54;2.95;;;2.30;;